Time,TemperatureF,DewpointF,PressureIn,WindDirection,WindDirectionDegrees,WindSpeedMPH,WindSpeedGustMPH,Humidity,HourlyPrecipIn,Conditions,Clouds,dailyrainin,SoftwareType,DateUTC
2013-08-20 00:13:00,73.0,-99.9,-100.00,North,0,0.0,2.0,-999,-99.99,,,-99.99,,2013-08-20 04:13:00,
2013-08-20 00:23:00,73.0,-99.9,-100.00,North,0,0.0,2.0,-999,-99.99,,,-99.99,,2013-08-20 04:23:00,
2013-08-20 00:33:00,73.0,-99.9,-100.00,North,0,0.0,2.0,-999,-99.99,,,-99.99,,2013-08-20 04:33:00,
2013-08-20 00:40:00,74.0,-99.9,-100.00,ENE,60,2.0,8.0,-999,-99.99,,,-99.99,,2013-08-20 04:40:00,
2013-08-20 01:12:00,74.0,-99.9,-100.00,ENE,60,2.0,8.0,-999,-99.99,,,-99.99,,2013-08-20 05:12:00,
2013-08-20 01:22:00,74.0,-99.9,-100.00,ENE,60,2.0,8.0,-999,-99.99,,,-99.99,,2013-08-20 05:22:00,
2013-08-20 01:32:00,74.0,-99.9,-100.00,ENE,60,2.0,8.0,-999,-99.99,,,-99.99,,2013-08-20 05:32:00,
2013-08-20 01:40:00,74.0,-99.9,-100.00,NE,50,5.0,7.0,-999,-99.99,,,-99.99,,2013-08-20 05:40:00,
2013-08-20 02:11:00,74.0,-99.9,-100.00,NE,50,5.0,7.0,-999,-99.99,,,-99.99,,2013-08-20 06:11:00,
2013-08-20 02:22:00,74.0,-99.9,-100.00,NE,50,5.0,7.0,-999,-99.99,,,-99.99,,2013-08-20 06:22:00,
2013-08-20 02:32:00,74.0,-99.9,-100.00,NE,50,5.0,7.0,-999,-99.99,,,-99.99,,2013-08-20 06:32:00,
2013-08-20 02:40:00,74.0,-99.9,-100.00,North,10,6.0,7.0,-999,-99.99,,,-99.99,,2013-08-20 06:40:00,
2013-08-20 03:11:00,74.0,-99.9,-100.00,North,10,6.0,7.0,-999,-99.99,,,-99.99,,2013-08-20 07:11:00,
2013-08-20 03:22:00,74.0,-99.9,-100.00,North,10,6.0,7.0,-999,-99.99,,,-99.99,,2013-08-20 07:22:00,
2013-08-20 03:32:00,74.0,-99.9,-100.00,North,10,6.0,7.0,-999,-99.99,,,-99.99,,2013-08-20 07:32:00,
2013-08-20 03:40:00,74.0,-99.9,-100.00,NE,40,3.0,6.0,-999,-99.99,,,-99.99,,2013-08-20 07:40:00,
2013-08-20 04:11:00,74.0,-99.9,-100.00,NE,40,3.0,6.0,-999,-99.99,,,-99.99,,2013-08-20 08:11:00,
2013-08-20 04:22:00,74.0,-99.9,-100.00,NE,40,3.0,6.0,-999,-99.99,,,-99.99,,2013-08-20 08:22:00,
2013-08-20 04:32:00,74.0,-99.9,-100.00,NE,40,3.0,6.0,-999,-99.99,,,-99.99,,2013-08-20 08:32:00,
2013-08-20 04:40:00,74.0,-99.9,-100.00,ENE,60,6.0,10.0,-999,-99.99,,,-99.99,,2013-08-20 08:40:00,
2013-08-20 05:11:00,74.0,-99.9,-100.00,ENE,60,6.0,10.0,-999,-99.99,,,-99.99,,2013-08-20 09:11:00,
2013-08-20 05:21:00,74.0,-99.9,-100.00,ENE,60,6.0,10.0,-999,-99.99,,,-99.99,,2013-08-20 09:21:00,
2013-08-20 05:33:00,74.0,-99.9,-100.00,ENE,60,6.0,10.0,-999,-99.99,,,-99.99,,2013-08-20 09:33:00,
2013-08-20 05:40:00,73.0,-99.9,-100.00,North,0,0.0,6.0,-999,-99.99,,,-99.99,,2013-08-20 09:40:00,
2013-08-20 06:12:00,73.0,-99.9,-100.00,North,0,0.0,6.0,-999,-99.99,,,-99.99,,2013-08-20 10:12:00,
2013-08-20 06:23:00,73.0,-99.9,-100.00,North,0,0.0,6.0,-999,-99.99,,,-99.99,,2013-08-20 10:23:00,
2013-08-20 06:32:00,73.0,-99.9,-100.00,North,0,0.0,6.0,-999,-99.99,,,-99.99,,2013-08-20 10:32:00,
2013-08-20 06:40:00,72.0,-99.9,-100.00,North,360,5.0,6.0,-999,-99.99,,,-99.99,,2013-08-20 10:40:00,
2013-08-20 07:11:00,72.0,-99.9,-100.00,North,360,5.0,6.0,-999,-99.99,,,-99.99,,2013-08-20 11:11:00,
2013-08-20 07:22:00,72.0,-99.9,-100.00,North,360,5.0,6.0,-999,-99.99,,,-99.99,,2013-08-20 11:22:00,
2013-08-20 07:33:00,72.0,-99.9,-100.00,North,360,5.0,6.0,-999,-99.99,,,-99.99,,2013-08-20 11:33:00,
2013-08-20 07:40:00,72.0,-99.9,-100.00,NNE,20,5.0,6.0,-999,-99.99,,,-99.99,,2013-08-20 11:40:00,
2013-08-20 08:12:00,72.0,-99.9,-100.00,NNE,20,5.0,6.0,-999,-99.99,,,-99.99,,2013-08-20 12:12:00,
2013-08-20 08:22:00,72.0,-99.9,-100.00,NNE,20,5.0,6.0,-999,-99.99,,,-99.99,,2013-08-20 12:22:00,
2013-08-20 08:32:00,72.0,-99.9,-100.00,NNE,20,5.0,6.0,-999,-99.99,,,-99.99,,2013-08-20 12:32:00,
2013-08-20 08:40:00,73.0,-99.9,-100.00,NNE,30,5.0,7.0,-999,-99.99,,,-99.99,,2013-08-20 12:40:00,
2013-08-20 09:11:00,73.0,-99.9,-100.00,NNE,30,5.0,7.0,-999,-99.99,,,-99.99,,2013-08-20 13:11:00,
2013-08-20 09:22:00,73.0,-99.9,-100.00,NNE,30,5.0,7.0,-999,-99.99,,,-99.99,,2013-08-20 13:22:00,
2013-08-20 09:32:00,73.0,-99.9,-100.00,NNE,30,5.0,7.0,-999,-99.99,,,-99.99,,2013-08-20 13:32:00,
2013-08-20 09:40:00,74.0,-99.9,-100.00,NNE,20,6.0,7.0,-999,-99.99,,,-99.99,,2013-08-20 13:40:00,
2013-08-20 10:22:00,74.0,-99.9,-100.00,NNE,20,6.0,7.0,-999,-99.99,,,-99.99,,2013-08-20 14:22:00,
2013-08-20 10:32:00,74.0,-99.9,-100.00,NNE,20,6.0,7.0,-999,-99.99,,,-99.99,,2013-08-20 14:32:00,
2013-08-20 10:40:00,75.0,-99.9,-100.00,NE,40,7.0,8.0,-999,-99.99,,,-99.99,,2013-08-20 14:40:00,
2013-08-20 11:11:00,75.0,-99.9,-100.00,NE,40,7.0,8.0,-999,-99.99,,,-99.99,,2013-08-20 15:11:00,
2013-08-20 11:22:00,75.0,-99.9,-100.00,NE,40,7.0,8.0,-999,-99.99,,,-99.99,,2013-08-20 15:22:00,
2013-08-20 11:34:00,75.0,-99.9,-100.00,NE,40,7.0,8.0,-999,-99.99,,,-99.99,,2013-08-20 15:34:00,
2013-08-20 11:40:00,76.0,-99.9,-100.00,ENE,70,1.0,6.0,-999,-99.99,,,-99.99,,2013-08-20 15:40:00,
2013-08-20 12:15:00,76.0,-99.9,-100.00,ENE,70,1.0,6.0,-999,-99.99,,,-99.99,,2013-08-20 16:15:00,
2013-08-20 12:31:00,-999.0,-99.9,-100.00,ENE,70,1.0,6.0,-999,-99.99,,,-99.99,,2013-08-20 16:31:00,
2013-08-20 12:40:00,76.0,-99.9,-100.00,North,10,5.0,7.0,-999,-99.99,,,-99.99,,2013-08-20 16:40:00,
2013-08-20 13:12:00,76.0,-99.9,-100.00,North,10,5.0,7.0,-999,-99.99,,,-99.99,,2013-08-20 17:12:00,
2013-08-20 13:24:00,76.0,-99.9,-100.00,North,10,5.0,7.0,-999,-99.99,,,-99.99,,2013-08-20 17:24:00,
2013-08-20 13:34:00,76.0,-99.9,-100.00,North,10,5.0,7.0,-999,-99.99,,,-99.99,,2013-08-20 17:34:00,
2013-08-20 13:40:00,76.0,-99.9,-100.00,North,350,6.0,8.0,-999,-99.99,,,-99.99,,2013-08-20 17:40:00,
2013-08-20 14:12:00,76.0,-99.9,-100.00,North,350,6.0,8.0,-999,-99.99,,,-99.99,,2013-08-20 18:12:00,
2013-08-20 14:22:00,76.0,-99.9,-100.00,North,350,6.0,8.0,-999,-99.99,,,-99.99,,2013-08-20 18:22:00,
2013-08-20 14:33:00,76.0,-99.9,-100.00,North,350,6.0,8.0,-999,-99.99,,,-99.99,,2013-08-20 18:33:00,
2013-08-20 14:40:00,77.0,-99.9,-100.00,NNW,340,6.0,7.0,-999,-99.99,,,-99.99,,2013-08-20 18:40:00,
2013-08-20 15:11:00,77.0,-99.9,-100.00,NNW,340,6.0,7.0,-999,-99.99,,,-99.99,,2013-08-20 19:11:00,
2013-08-20 15:22:00,77.0,-99.9,-100.00,NNW,340,6.0,7.0,-999,-99.99,,,-99.99,,2013-08-20 19:22:00,
2013-08-20 15:32:00,77.0,-99.9,-100.00,NNW,340,6.0,7.0,-999,-99.99,,,-99.99,,2013-08-20 19:32:00,
2013-08-20 15:40:00,78.0,-99.9,-100.00,North,10,5.0,8.0,-999,-99.99,,,-99.99,,2013-08-20 19:40:00,
2013-08-20 16:12:00,78.0,-99.9,-100.00,North,10,5.0,8.0,-999,-99.99,,,-99.99,,2013-08-20 20:12:00,
2013-08-20 16:22:00,78.0,-99.9,-100.00,North,10,5.0,8.0,-999,-99.99,,,-99.99,,2013-08-20 20:22:00,
2013-08-20 16:32:00,78.0,-99.9,-100.00,North,10,5.0,8.0,-999,-99.99,,,-99.99,,2013-08-20 20:32:00,
2013-08-20 16:40:00,79.0,-99.9,-100.00,North,360,7.0,8.0,-999,-99.99,,,-99.99,,2013-08-20 20:40:00,
2013-08-20 17:11:00,79.0,-99.9,-100.00,North,360,7.0,8.0,-999,-99.99,,,-99.99,,2013-08-20 21:11:00,
2013-08-20 17:22:00,79.0,-99.9,-100.00,North,360,7.0,8.0,-999,-99.99,,,-99.99,,2013-08-20 21:22:00,
2013-08-20 17:34:00,79.0,-99.9,-100.00,North,360,7.0,8.0,-999,-99.99,,,-99.99,,2013-08-20 21:34:00,
2013-08-20 17:40:00,80.0,-99.9,-100.00,NW,320,3.0,7.0,-999,-99.99,,,-99.99,,2013-08-20 21:40:00,
2013-08-20 18:14:00,80.0,-99.9,-100.00,NW,320,3.0,7.0,-999,-99.99,,,-99.99,,2013-08-20 22:14:00,
2013-08-20 18:24:00,80.0,-99.9,-100.00,NW,320,3.0,7.0,-999,-99.99,,,-99.99,,2013-08-20 22:24:00,
2013-08-20 18:33:00,80.0,-99.9,-100.00,NW,320,3.0,7.0,-999,-99.99,,,-99.99,,2013-08-20 22:33:00,
2013-08-20 18:40:00,80.0,-99.9,-100.00,NW,310,3.0,7.0,-999,-99.99,,,-99.99,,2013-08-20 22:40:00,
2013-08-20 19:13:00,80.0,-99.9,-100.00,NW,310,3.0,7.0,-999,-99.99,,,-99.99,,2013-08-20 23:13:00,
2013-08-20 19:23:00,80.0,-99.9,-100.00,NW,310,3.0,7.0,-999,-99.99,,,-99.99,,2013-08-20 23:23:00,
2013-08-20 19:33:00,80.0,-99.9,-100.00,NW,310,3.0,7.0,-999,-99.99,,,-99.99,,2013-08-20 23:33:00,
2013-08-20 19:40:00,80.0,-99.9,-100.00,North,10,3.0,5.0,-999,-99.99,,,-99.99,,2013-08-20 23:40:00,
2013-08-20 20:12:00,80.0,-99.9,-100.00,North,10,3.0,5.0,-999,-99.99,,,-99.99,,2013-08-21 00:12:00,
2013-08-20 20:23:00,80.0,-99.9,-100.00,North,10,3.0,5.0,-999,-99.99,,,-99.99,,2013-08-21 00:23:00,
2013-08-20 20:32:00,80.0,-99.9,-100.00,North,10,3.0,5.0,-999,-99.99,,,-99.99,,2013-08-21 00:32:00,
2013-08-20 20:40:00,76.0,-99.9,-100.00,South,170,2.0,7.0,-999,-99.99,,,-99.99,,2013-08-21 00:40:00,
2013-08-20 21:11:00,76.0,-99.9,-100.00,South,170,2.0,7.0,-999,-99.99,,,-99.99,,2013-08-21 01:11:00,
2013-08-20 21:22:00,76.0,-99.9,-100.00,South,170,2.0,7.0,-999,-99.99,,,-99.99,,2013-08-21 01:22:00,
2013-08-20 21:32:00,76.0,-99.9,-100.00,South,170,2.0,7.0,-999,-99.99,,,-99.99,,2013-08-21 01:32:00,
2013-08-20 21:40:00,74.0,-99.9,-100.00,North,0,0.0,3.0,-999,-99.99,,,-99.99,,2013-08-21 01:40:00,
2013-08-20 22:12:00,74.0,-99.9,-100.00,North,0,0.0,3.0,-999,-99.99,,,-99.99,,2013-08-21 02:12:00,
2013-08-20 22:22:00,74.0,-99.9,-100.00,North,0,0.0,3.0,-999,-99.99,,,-99.99,,2013-08-21 02:22:00,
2013-08-20 22:32:00,74.0,-99.9,-100.00,North,0,0.0,3.0,-999,-99.99,,,-99.99,,2013-08-21 02:32:00,
2013-08-20 22:40:00,74.0,-99.9,-100.00,NNE,30,5.0,7.0,-999,-99.99,,,-99.99,,2013-08-21 02:40:00,
2013-08-20 23:23:00,74.0,-99.9,-100.00,NNE,30,5.0,7.0,-999,-99.99,,,-99.99,,2013-08-21 03:23:00,
2013-08-20 23:35:00,74.0,-99.9,-100.00,NNE,30,5.0,7.0,-999,-99.99,,,-99.99,,2013-08-21 03:35:00,
2013-08-20 23:40:00,73.0,-99.9,-100.00,North,0,0.0,2.0,-999,-99.99,,,-99.99,,2013-08-21 03:40:00,